Time;durP1;ratioP1;P1;durP2;ratioP2;P2;SDS_P1;SDS_P2;PMS_P1;PMS_P2;Temp;Humidity;BMP_temperature;BMP_pressure;BME280_temperature;BME280_humidity;BME280_pressure;Samples;Min_cycle;Max_cycle;Signal;HPM_P1;HPM_P2
2024/01/31 00:01:46;;;;;;;6.72;2.00;;;;;;;;;;5081750;28;20044;-73
2024/01/31 00:04:12;;;;;;;5.70;1.90;;;;;;;;;;5076757;28;20077;-73
2024/01/31 00:06:40;;;;;;;7.57;2.13;;;;;;;;;;5077232;28;20044;-72
2024/01/31 00:09:07;;;;;;;6.45;1.98;;;;;;;;;;5078620;28;20054;-72
2024/01/31 00:11:33;;;;;;;5.20;1.65;;;;;;;;;;5082017;28;20041;-74
2024/01/31 00:14:00;;;;;;;10.82;2.22;;;;;;;;;;5081914;28;20503;-73
2024/01/31 00:16:26;;;;;;;7.70;1.85;;;;;;;;;;5069657;28;20784;-74
2024/01/31 00:18:54;;;;;;;7.18;2.00;;;;;;;;;;5058006;28;20060;-73
2024/01/31 00:21:20;;;;;;;7.67;1.93;;;;;;;;;;5051288;28;20055;-72
2024/01/31 00:23:47;;;;;;;11.80;1.95;;;;;;;;;;5056635;28;20052;-74
2024/01/31 00:26:13;;;;;;;9.52;1.92;;;;;;;;;;5073989;28;20075;-73
2024/01/31 00:28:40;;;;;;;6.10;1.38;;;;;;;;;;5072457;28;20044;-73
2024/01/31 00:31:09;;;;;;;5.80;1.50;;;;;;;;;;5083298;28;20047;-75
2024/01/31 00:33:35;;;;;;;7.00;1.60;;;;;;;;;;5055086;28;20055;-75
2024/01/31 00:36:02;;;;;;;6.15;2.17;;;;;;;;;;5067034;28;20056;-72
2024/01/31 00:38:29;;;;;;;6.75;2.05;;;;;;;;;;5060252;28;20165;-74
2024/01/31 00:40:55;;;;;;;5.35;1.85;;;;;;;;;;5053428;28;20056;-73
2024/01/31 00:43:21;;;;;;;6.97;1.92;;;;;;;;;;5078742;28;20179;-73
2024/01/31 00:45:48;;;;;;;12.25;1.80;;;;;;;;;;5060015;28;20058;-74
2024/01/31 00:48:15;;;;;;;8.30;2.50;;;;;;;;;;5078469;28;20062;-73
2024/01/31 00:50:41;;;;;;;7.22;1.75;;;;;;;;;;5065125;28;20044;-74
2024/01/31 00:53:08;;;;;;;8.18;1.90;;;;;;;;;;5081179;28;20052;-72
2024/01/31 00:55:38;;;;;;;7.88;1.67;;;;;;;;;;5074018;28;20062;-72
2024/01/31 00:58:05;;;;;;;6.75;1.63;;;;;;;;;;5075477;28;20050;-73
2024/01/31 01:00:31;;;;;;;8.60;1.90;;;;;;;;;;5077126;28;20452;-73
2024/01/31 01:02:58;;;;;;;4.22;1.70;;;;;;;;;;5070919;28;20052;-73
2024/01/31 01:05:24;;;;;;;5.20;1.70;;;;;;;;;;5065925;28;20450;-73
2024/01/31 01:07:51;;;;;;;7.50;1.90;;;;;;;;;;5069349;28;20824;-73
2024/01/31 01:10:17;;;;;;;6.38;1.52;;;;;;;;;;5073951;28;20797;-73
2024/01/31 01:12:43;;;;;;;3.45;1.65;;;;;;;;;;5079914;28;20058;-74
2024/01/31 01:15:10;;;;;;;5.75;1.80;;;;;;;;;;5080160;28;20052;-75
2024/01/31 01:17:42;;;;;;;6.43;1.65;;;;;;;;;;5071504;28;20854;-73
2024/01/31 01:20:08;;;;;;;6.75;1.65;;;;;;;;;;5080378;28;20109;-75
2024/01/31 01:22:35;;;;;;;5.40;1.80;;;;;;;;;;5087492;28;20048;-73
2024/01/31 01:25:02;;;;;;;7.13;1.83;;;;;;;;;;5063877;28;20056;-73
2024/01/31 01:27:28;;;;;;;5.95;1.30;;;;;;;;;;5084747;28;20488;-73
2024/01/31 01:29:55;;;;;;;4.93;1.73;;;;;;;;;;5082256;28;20113;-73
2024/01/31 01:32:21;;;;;;;6.97;1.88;;;;;;;;;;5090268;28;20088;-73
2024/01/31 01:34:49;;;;;;;3.42;1.27;;;;;;;;;;5079313;28;20047;-73
2024/01/31 01:37:17;;;;;;;7.50;1.52;;;;;;;;;;5068601;28;20036;-73
2024/01/31 01:39:45;;;;;;;6.68;1.48;;;;;;;;;;5087819;28;20404;-75
2024/01/31 01:42:12;;;;;;;6.18;1.48;;;;;;;;;;5070090;28;20728;-72
2024/01/31 01:44:43;;;;;;;6.82;1.58;;;;;;;;;;5080906;28;20841;-73
2024/01/31 01:47:09;;;;;;;7.45;2.00;;;;;;;;;;5099487;28;20060;-73
2024/01/31 01:49:36;;;;;;;6.93;1.80;;;;;;;;;;5080554;28;20044;-72
2024/01/31 01:52:03;;;;;;;6.07;1.70;;;;;;;;;;5084293;28;20064;-73
2024/01/31 01:54:30;;;;;;;5.95;1.77;;;;;;;;;;5073804;28;20052;-72
2024/01/31 01:56:57;;;;;;;6.78;1.67;;;;;;;;;;5081298;28;20060;-73
2024/01/31 01:59:24;;;;;;;7.45;1.52;;;;;;;;;;5083186;28;20060;-73
2024/01/31 02:01:51;;;;;;;5.07;1.73;;;;;;;;;;5080004;28;20079;-73
2024/01/31 02:04:18;;;;;;;4.57;1.58;;;;;;;;;;5068303;28;20059;-72
2024/01/31 02:06:45;;;;;;;5.72;1.63;;;;;;;;;;5067275;28;20055;-72
2024/01/31 02:09:12;;;;;;;2.83;1.58;;;;;;;;;;5075646;28;20045;-71
2024/01/31 02:11:38;;;;;;;4.35;1.50;;;;;;;;;;5042501;28;20048;-72
2024/01/31 02:14:04;;;;;;;4.72;1.42;;;;;;;;;;5080575;28;20048;-73
2024/01/31 02:16:31;;;;;;;4.10;1.40;;;;;;;;;;5077389;28;20585;-73
2024/01/31 02:18:57;;;;;;;5.15;1.35;;;;;;;;;;5080570;28;20043;-73
2024/01/31 02:21:26;;;;;;;5.38;1.63;;;;;;;;;;5084608;28;20150;-73
2024/01/31 02:23:52;;;;;;;5.97;1.60;;;;;;;;;;5072408;28;20167;-72
2024/01/31 02:26:19;;;;;;;6.13;1.50;;;;;;;;;;5069351;28;20071;-73
2024/01/31 02:28:46;;;;;;;6.47;1.63;;;;;;;;;;5082083;28;20163;-72
2024/01/31 02:31:12;;;;;;;5.78;1.50;;;;;;;;;;5084816;28;20044;-72
2024/01/31 02:33:39;;;;;;;6.57;1.50;;;;;;;;;;5091373;28;20040;-73
2024/01/31 02:36:05;;;;;;;6.60;1.67;;;;;;;;;;5062380;28;20060;-73
2024/01/31 02:38:32;;;;;;;7.20;2.05;;;;;;;;;;5076968;28;20598;-72
2024/01/31 02:40:58;;;;;;;5.82;1.85;;;;;;;;;;5077847;28;20074;-73
2024/01/31 02:43:24;;;;;;;5.63;1.60;;;;;;;;;;5084412;28;20128;-73
2024/01/31 02:45:51;;;;;;;6.15;1.95;;;;;;;;;;5085169;28;20054;-74
2024/01/31 02:48:17;;;;;;;6.68;1.80;;;;;;;;;;5078604;28;20051;-73
2024/01/31 02:50:44;;;;;;;6.95;1.83;;;;;;;;;;5063895;28;20040;-73
2024/01/31 02:53:10;;;;;;;6.07;2.08;;;;;;;;;;5070641;28;20099;-72
2024/01/31 02:55:37;;;;;;;6.80;1.70;;;;;;;;;;5058834;28;20125;-72
2024/01/31 02:58:03;;;;;;;9.93;1.90;;;;;;;;;;5082583;28;20398;-72
2024/01/31 03:00:30;;;;;;;9.27;1.80;;;;;;;;;;5063585;28;20536;-73
2024/01/31 03:02:56;;;;;;;5.68;1.77;;;;;;;;;;5066022;28;20105;-73
2024/01/31 03:05:23;;;;;;;7.47;1.83;;;;;;;;;;5076441;28;20047;-73
2024/01/31 03:07:49;;;;;;;6.05;2.05;;;;;;;;;;5070187;28;20059;-74
2024/01/31 03:10:16;;;;;;;9.95;2.08;;;;;;;;;;5078661;28;20091;-72
2024/01/31 03:12:43;;;;;;;8.68;2.38;;;;;;;;;;5065811;28;20105;-73
2024/01/31 03:15:09;;;;;;;5.40;1.80;;;;;;;;;;5089491;28;20083;-73
2024/01/31 03:17:36;;;;;;;8.88;2.03;;;;;;;;;;5085957;28;20066;-73
2024/01/31 03:20:13;;;;;;;4.32;1.65;;;;;;;;;;5067582;28;20063;-73
2024/01/31 03:22:39;;;;;;;6.40;1.98;;;;;;;;;;5048649;28;20052;-73
2024/01/31 03:25:07;;;;;;;3.47;1.60;;;;;;;;;;5067218;28;20074;-73
2024/01/31 03:27:33;;;;;;;6.43;1.67;;;;;;;;;;5050019;28;20051;-73
2024/01/31 03:30:02;;;;;;;4.53;1.75;;;;;;;;;;5084031;28;20129;-73
2024/01/31 03:32:35;;;;;;;7.22;2.30;;;;;;;;;;5094742;28;20119;-75
2024/01/31 03:35:02;;;;;;;8.88;2.03;;;;;;;;;;5058528;28;20052;-74
2024/01/31 03:37:28;;;;;;;10.32;1.70;;;;;;;;;;5082635;28;20059;-74
2024/01/31 03:39:55;;;;;;;6.05;1.67;;;;;;;;;;5078219;28;20051;-75
2024/01/31 03:42:22;;;;;;;3.85;1.83;;;;;;;;;;5085553;28;20815;-74
2024/01/31 03:44:48;;;;;;;5.88;2.10;;;;;;;;;;5085252;28;20129;-74
2024/01/31 03:47:14;;;;;;;6.18;1.92;;;;;;;;;;5081430;28;20043;-73
2024/01/31 03:49:41;;;;;;;8.23;1.70;;;;;;;;;;5066951;28;20892;-75
2024/01/31 03:52:07;;;;;;;6.07;1.80;;;;;;;;;;5057350;28;20170;-74
2024/01/31 03:54:34;;;;;;;6.07;1.75;;;;;;;;;;5086875;28;20044;-75
2024/01/31 03:57:00;;;;;;;5.07;1.55;;;;;;;;;;5076699;28;20132;-75
2024/01/31 03:59:26;;;;;;;6.95;1.70;;;;;;;;;;5090889;28;20055;-75
2024/01/31 04:01:53;;;;;;;6.75;1.80;;;;;;;;;;5080444;28;20052;-75
2024/01/31 04:04:20;;;;;;;5.20;1.65;;;;;;;;;;5076370;28;20064;-75
2024/01/31 04:06:46;;;;;;;5.32;1.70;;;;;;;;;;5090184;28;20110;-74
2024/01/31 04:09:13;;;;;;;6.57;1.60;;;;;;;;;;5072762;28;20476;-74
2024/01/31 04:11:39;;;;;;;7.32;2.08;;;;;;;;;;5072692;28;20178;-75
2024/01/31 04:14:06;;;;;;;9.85;1.80;;;;;;;;;;5087400;28;20055;-75
2024/01/31 04:16:32;;;;;;;6.65;1.88;;;;;;;;;;5068591;28;20128;-75
2024/01/31 04:18:59;;;;;;;7.57;2.08;;;;;;;;;;5082056;28;20044;-75
2024/01/31 04:21:25;;;;;;;6.13;1.30;;;;;;;;;;5091461;28;20051;-76
2024/01/31 04:23:52;;;;;;;6.88;1.98;;;;;;;;;;5092135;28;20040;-75
2024/01/31 04:26:18;;;;;;;5.75;1.48;;;;;;;;;;5076349;28;20144;-75
2024/01/31 04:28:45;;;;;;;5.32;1.40;;;;;;;;;;5059178;28;20140;-75
2024/01/31 04:31:12;;;;;;;7.00;1.60;;;;;;;;;;5066786;28;20139;-75
2024/01/31 04:33:38;;;;;;;6.32;1.25;;;;;;;;;;5069621;28;20043;-74
2024/01/31 04:36:05;;;;;;;6.97;1.58;;;;;;;;;;5092966;28;20048;-75
2024/01/31 04:38:32;;;;;;;10.73;1.63;;;;;;;;;;5062004;28;20052;-76
2024/01/31 04:40:59;;;;;;;5.72;1.60;;;;;;;;;;5066344;28;20041;-73
2024/01/31 04:43:25;;;;;;;10.68;2.42;;;;;;;;;;5065497;28;20158;-74
2024/01/31 04:45:52;;;;;;;5.75;1.65;;;;;;;;;;5078861;28;20106;-77
2024/01/31 04:48:18;;;;;;;8.45;1.40;;;;;;;;;;5071177;28;20095;-76
2024/01/31 04:50:45;;;;;;;4.85;1.50;;;;;;;;;;5065420;28;20478;-74
2024/01/31 04:53:11;;;;;;;3.53;1.25;;;;;;;;;;5088883;28;20775;-74
2024/01/31 04:55:38;;;;;;;3.83;1.40;;;;;;;;;;5089649;28;20098;-73
2024/01/31 04:58:04;;;;;;;5.28;1.60;;;;;;;;;;5069597;28;20150;-73
2024/01/31 05:00:31;;;;;;;4.35;1.40;;;;;;;;;;5081249;28;20056;-74
2024/01/31 05:02:57;;;;;;;6.50;1.65;;;;;;;;;;5081853;28;20070;-73
2024/01/31 05:05:23;;;;;;;6.65;1.55;;;;;;;;;;5072242;28;20182;-73
2024/01/31 05:07:50;;;;;;;8.27;1.92;;;;;;;;;;5083150;28;20538;-74
2024/01/31 05:10:16;;;;;;;4.20;1.42;;;;;;;;;;5082844;28;20040;-74
2024/01/31 05:12:43;;;;;;;10.25;1.50;;;;;;;;;;5080406;28;20056;-74
2024/01/31 05:15:09;;;;;;;5.82;1.98;;;;;;;;;;5065482;28;20098;-74
2024/01/31 05:17:36;;;;;;;7.22;1.80;;;;;;;;;;5097843;28;20123;-74
2024/01/31 05:20:03;;;;;;;6.15;1.95;;;;;;;;;;5064887;28;20047;-77
2024/01/31 05:22:29;;;;;;;3.28;1.40;;;;;;;;;;5066662;28;20056;-72
2024/01/31 05:24:55;;;;;;;5.95;1.40;;;;;;;;;;5071412;28;20129;-74
2024/01/31 05:27:22;;;;;;;6.25;1.55;;;;;;;;;;5080837;28;20048;-74
2024/01/31 05:29:48;;;;;;;6.25;2.40;;;;;;;;;;5075786;28;20047;-74
2024/01/31 05:32:15;;;;;;;4.78;1.88;;;;;;;;;;5075771;28;20428;-74
2024/01/31 05:34:44;;;;;;;4.38;1.30;;;;;;;;;;5074245;28;20041;-75
2024/01/31 05:37:10;;;;;;;4.05;1.60;;;;;;;;;;5052562;28;20049;-74
2024/01/31 05:39:37;;;;;;;4.78;1.50;;;;;;;;;;5070902;28;20044;-74
2024/01/31 05:42:03;;;;;;;6.68;1.65;;;;;;;;;;5071473;28;20125;-74
2024/01/31 05:44:30;;;;;;;6.93;1.60;;;;;;;;;;5079651;28;20048;-74
2024/01/31 05:46:56;;;;;;;7.28;1.70;;;;;;;;;;5086672;28;20113;-74
2024/01/31 05:49:22;;;;;;;4.68;1.77;;;;;;;;;;5063999;28;20044;-74
2024/01/31 05:51:51;;;;;;;5.57;1.40;;;;;;;;;;5074685;28;20059;-74
2024/01/31 05:54:18;;;;;;;5.60;1.42;;;;;;;;;;5069980;28;20075;-74
2024/01/31 05:56:45;;;;;;;8.35;1.50;;;;;;;;;;5090987;28;20451;-75
2024/01/31 05:59:11;;;;;;;6.15;1.77;;;;;;;;;;5092754;28;20044;-73
2024/01/31 06:01:38;;;;;;;5.45;2.13;;;;;;;;;;5086328;28;20122;-74
2024/01/31 06:04:06;;;;;;;5.20;1.52;;;;;;;;;;5084199;28;20052;-74
2024/01/31 06:06:32;;;;;;;18.30;2.17;;;;;;;;;;5075492;28;20424;-75
2024/01/31 06:08:59;;;;;;;7.88;1.70;;;;;;;;;;5080882;28;20156;-73
2024/01/31 06:11:25;;;;;;;3.17;1.45;;;;;;;;;;5074302;28;20442;-74
2024/01/31 06:13:52;;;;;;;4.85;1.60;;;;;;;;;;5082378;28;20156;-74
2024/01/31 06:16:18;;;;;;;4.40;1.65;;;;;;;;;;5087673;28;20055;-74
2024/01/31 06:18:44;;;;;;;5.72;1.77;;;;;;;;;;5060643;28;20694;-73
2024/01/31 06:21:11;;;;;;;4.10;1.63;;;;;;;;;;5072010;28;20072;-73
2024/01/31 06:23:37;;;;;;;4.18;1.77;;;;;;;;;;5066512;28;20473;-74
2024/01/31 06:26:04;;;;;;;10.60;1.88;;;;;;;;;;5090847;28;20048;-75
2024/01/31 06:28:30;;;;;;;7.95;1.63;;;;;;;;;;5063335;28;20048;-74
2024/01/31 06:31:03;;;;;;;5.18;1.98;;;;;;;;;;5075420;28;20134;-74
2024/01/31 06:33:31;;;;;;;4.20;1.60;;;;;;;;;;5066325;28;20499;-73
2024/01/31 06:35:58;;;;;;;5.18;1.58;;;;;;;;;;5060939;28;20044;-75
2024/01/31 06:38:24;;;;;;;3.90;1.75;;;;;;;;;;5064722;28;20090;-74
2024/01/31 06:40:51;;;;;;;6.38;2.42;;;;;;;;;;5062740;28;20083;-74
2024/01/31 06:43:18;;;;;;;9.63;2.10;;;;;;;;;;5087645;28;20117;-75
2024/01/31 06:45:47;;;;;;;4.90;2.15;;;;;;;;;;5064340;28;20051;-74
2024/01/31 06:48:13;;;;;;;4.75;2.40;;;;;;;;;;5079848;28;20052;-74
2024/01/31 06:50:40;;;;;;;9.18;2.40;;;;;;;;;;5086714;28;20076;-75
2024/01/31 06:53:06;;;;;;;5.28;2.38;;;;;;;;;;5080764;28;20055;-75
2024/01/31 06:55:33;;;;;;;5.13;2.50;;;;;;;;;;5098313;28;20424;-74
2024/01/31 06:57:59;;;;;;;3.78;2.35;;;;;;;;;;5082226;28;20043;-74
2024/01/31 07:00:25;;;;;;;9.10;2.55;;;;;;;;;;5088363;28;20052;-74
2024/01/31 07:02:53;;;;;;;5.45;2.50;;;;;;;;;;5084272;28;20356;-74
2024/01/31 07:05:19;;;;;;;7.38;2.60;;;;;;;;;;5061040;28;20053;-75
2024/01/31 07:07:48;;;;;;;7.03;2.58;;;;;;;;;;5076891;28;20083;-74
2024/01/31 07:10:14;;;;;;;5.80;2.60;;;;;;;;;;5061651;28;20048;-73
2024/01/31 07:12:41;;;;;;;8.15;2.50;;;;;;;;;;5077449;28;20424;-73
2024/01/31 07:15:08;;;;;;;4.50;2.45;;;;;;;;;;5053969;28;20040;-74
2024/01/31 07:17:34;;;;;;;5.32;2.83;;;;;;;;;;5075780;28;20211;-75
2024/01/31 07:20:01;;;;;;;11.15;3.10;;;;;;;;;;5075134;28;20349;-75
2024/01/31 07:22:27;;;;;;;7.60;3.13;;;;;;;;;;5073386;28;20054;-75
2024/01/31 07:24:54;;;;;;;7.70;3.20;;;;;;;;;;5086441;28;20056;-75
2024/01/31 07:27:20;;;;;;;6.45;3.10;;;;;;;;;;5067998;28;20135;-74
2024/01/31 07:29:46;;;;;;;7.18;3.13;;;;;;;;;;5082963;28;20063;-76
2024/01/31 07:32:13;;;;;;;4.72;2.83;;;;;;;;;;5076644;28;20044;-75
2024/01/31 07:34:39;;;;;;;7.50;2.70;;;;;;;;;;5065125;28;20058;-75
2024/01/31 07:37:06;;;;;;;8.70;3.00;;;;;;;;;;5069267;28;20382;-74
2024/01/31 07:39:32;;;;;;;7.50;2.70;;;;;;;;;;5067488;28;20611;-75
2024/01/31 07:41:59;;;;;;;7.07;3.30;;;;;;;;;;5066390;28;20574;-74
2024/01/31 07:44:25;;;;;;;6.60;2.88;;;;;;;;;;5066047;28;20122;-74
2024/01/31 07:46:54;;;;;;;5.80;3.00;;;;;;;;;;5076031;28;20060;-74
2024/01/31 07:49:21;;;;;;;9.38;3.95;;;;;;;;;;5079779;28;20534;-75
2024/01/31 07:51:47;;;;;;;4.93;3.22;;;;;;;;;;5073394;28;20123;-75
2024/01/31 07:54:15;;;;;;;5.97;2.85;;;;;;;;;;5073885;28;20436;-75
2024/01/31 07:56:42;;;;;;;9.48;3.35;;;;;;;;;;5073895;28;20048;-76
2024/01/31 07:59:08;;;;;;;5.85;2.95;;;;;;;;;;5094119;28;20381;-75
2024/01/31 08:01:34;;;;;;;5.00;2.80;;;;;;;;;;5089348;28;20579;-74
2024/01/31 08:04:01;;;;;;;7.60;3.60;;;;;;;;;;5082374;28;20467;-74
2024/01/31 08:06:28;;;;;;;6.22;3.15;;;;;;;;;;5085674;28;20127;-75
2024/01/31 08:08:54;;;;;;;12.73;3.45;;;;;;;;;;5056438;28;20055;-74
2024/01/31 08:11:27;;;;;;;10.05;3.60;;;;;;;;;;5077774;28;20052;-74
2024/01/31 08:13:53;;;;;;;8.80;3.30;;;;;;;;;;5079458;28;20047;-75
2024/01/31 08:16:20;;;;;;;5.75;3.33;;;;;;;;;;5067630;28;20043;-75
2024/01/31 08:18:46;;;;;;;8.40;3.65;;;;;;;;;;5096895;28;20113;-74
2024/01/31 08:21:12;;;;;;;6.40;3.40;;;;;;;;;;5079888;28;20101;-74
2024/01/31 08:23:39;;;;;;;10.75;3.90;;;;;;;;;;5063977;28;20044;-75
2024/01/31 08:26:06;;;;;;;6.50;3.00;;;;;;;;;;5070998;28;20043;-75
2024/01/31 08:28:32;;;;;;;6.97;3.40;;;;;;;;;;5072165;28;20040;-74
2024/01/31 08:30:58;;;;;;;7.45;3.55;;;;;;;;;;5069268;28;20055;-75
2024/01/31 08:33:26;;;;;;;9.13;3.58;;;;;;;;;;5081517;28;20047;-75
2024/01/31 08:35:52;;;;;;;6.47;3.17;;;;;;;;;;5067302;28;20044;-74
2024/01/31 08:38:19;;;;;;;7.28;3.25;;;;;;;;;;5071541;28;20048;-75
2024/01/31 08:40:45;;;;;;;7.78;3.35;;;;;;;;;;5083422;28;20056;-75
2024/01/31 08:43:11;;;;;;;9.00;3.88;;;;;;;;;;5079327;28;20051;-75
2024/01/31 08:45:38;;;;;;;5.90;3.42;;;;;;;;;;5077454;28;20071;-75
2024/01/31 08:48:04;;;;;;;8.77;3.58;;;;;;;;;;5062290;28;20063;-75
2024/01/31 08:50:31;;;;;;;7.63;3.58;;;;;;;;;;5080520;28;20048;-74
2024/01/31 08:52:58;;;;;;;6.65;3.47;;;;;;;;;;5078473;28;20099;-76
2024/01/31 08:55:24;;;;;;;7.20;3.80;;;;;;;;;;5075540;28;20610;-74
2024/01/31 08:57:51;;;;;;;8.27;4.35;;;;;;;;;;5061938;28;20072;-74
2024/01/31 09:00:17;;;;;;;8.77;4.22;;;;;;;;;;5075402;28;20047;-74
2024/01/31 09:02:44;;;;;;;7.15;4.20;;;;;;;;;;5073405;28;20043;-74
2024/01/31 09:05:10;;;;;;;7.85;4.30;;;;;;;;;;5080712;28;20052;-75
2024/01/31 09:07:37;;;;;;;13.15;4.30;;;;;;;;;;5076983;28;20077;-75
2024/01/31 09:10:04;;;;;;;10.48;4.55;;;;;;;;;;5083854;28;20051;-76
2024/01/31 09:12:31;;;;;;;8.18;4.60;;;;;;;;;;5061555;28;20047;-76
2024/01/31 09:14:57;;;;;;;8.27;4.57;;;;;;;;;;5086682;28;20047;-76
2024/01/31 09:17:24;;;;;;;8.02;4.45;;;;;;;;;;5085807;28;20043;-75
2024/01/31 09:19:50;;;;;;;7.65;4.55;;;;;;;;;;5086082;28;20040;-76
2024/01/31 09:22:17;;;;;;;10.30;4.53;;;;;;;;;;5066901;28;20064;-75
2024/01/31 09:24:43;;;;;;;9.23;4.10;;;;;;;;;;5075989;28;20466;-75
2024/01/31 09:27:10;;;;;;;12.63;5.25;;;;;;;;;;5067338;28;20041;-76
2024/01/31 09:29:36;;;;;;;11.00;5.18;;;;;;;;;;5078635;28;20580;-75
2024/01/31 09:32:05;;;;;;;12.57;5.00;;;;;;;;;;5079600;28;20055;-75
2024/01/31 09:34:31;;;;;;;8.75;5.38;;;;;;;;;;5077233;28;20177;-75
2024/01/31 09:36:59;;;;;;;12.20;5.25;;;;;;;;;;5062093;28;20048;-76
2024/01/31 09:39:25;;;;;;;13.77;6.05;;;;;;;;;;5085197;28;20048;-75
2024/01/31 09:41:52;;;;;;;12.32;5.57;;;;;;;;;;5056069;28;20048;-77
2024/01/31 09:44:19;;;;;;;10.57;5.63;;;;;;;;;;5086106;28;20476;-74
2024/01/31 09:46:46;;;;;;;11.60;5.43;;;;;;;;;;5070893;28;20839;-74
2024/01/31 09:49:13;;;;;;;10.80;5.75;;;;;;;;;;5079837;28;20040;-75
2024/01/31 09:51:39;;;;;;;13.00;5.15;;;;;;;;;;5078273;28;20059;-75
2024/01/31 09:54:07;;;;;;;11.40;5.75;;;;;;;;;;5081653;28;20129;-75
2024/01/31 09:56:33;;;;;;;14.13;6.17;;;;;;;;;;5087804;28;20044;-75
2024/01/31 09:59:00;;;;;;;10.68;6.13;;;;;;;;;;5089307;28;20109;-75
2024/01/31 10:01:26;;;;;;;12.63;5.97;;;;;;;;;;5076924;28;20520;-74
2024/01/31 10:03:58;;;;;;;10.15;6.07;;;;;;;;;;5083553;28;20040;-76
2024/01/31 10:06:29;;;;;;;12.73;6.65;;;;;;;;;;5054315;28;20508;-75
2024/01/31 10:08:57;;;;;;;16.02;6.97;;;;;;;;;;5084916;28;20047;-74
2024/01/31 10:11:24;;;;;;;16.83;7.07;;;;;;;;;;5064971;28;20048;-74
2024/01/31 10:13:51;;;;;;;12.10;7.75;;;;;;;;;;5070271;28;20090;-74
2024/01/31 10:16:17;;;;;;;14.75;8.52;;;;;;;;;;5075423;28;20046;-74
2024/01/31 10:18:44;;;;;;;16.73;8.88;;;;;;;;;;5080649;28;20735;-73
2024/01/31 10:21:10;;;;;;;15.80;7.93;;;;;;;;;;5086211;28;20983;-74
2024/01/31 10:23:37;;;;;;;18.98;9.00;;;;;;;;;;5072280;28;20054;-74
2024/01/31 10:26:08;;;;;;;18.38;9.32;;;;;;;;;;5097995;28;20049;-74
2024/01/31 10:28:38;;;;;;;17.17;10.18;;;;;;;;;;5086940;28;20082;-74
2024/01/31 10:31:11;;;;;;;18.75;10.18;;;;;;;;;;5091975;28;20054;-74
2024/01/31 10:33:41;;;;;;;16.83;9.80;;;;;;;;;;5064293;28;20071;-74
2024/01/31 10:36:08;;;;;;;18.88;10.23;;;;;;;;;;5086563;28;20047;-74
2024/01/31 10:38:55;;;;;;;21.35;10.75;;;;;;;;;;5076655;28;20155;-74
2024/01/31 10:41:24;;;;;;;23.77;12.33;;;;;;;;;;5077891;28;20508;-74
2024/01/31 10:43:50;;;;;;;19.80;12.20;;;;;;;;;;5082730;28;20287;-74
2024/01/31 10:46:17;;;;;;;25.30;12.15;;;;;;;;;;5075471;28;20048;-74
2024/01/31 10:48:43;;;;;;;28.45;13.63;;;;;;;;;;5086316;28;20106;-74
2024/01/31 10:51:10;;;;;;;27.58;13.63;;;;;;;;;;5084957;28;20040;-74
2024/01/31 10:53:38;;;;;;;26.65;13.65;;;;;;;;;;5074134;28;20160;-75
2024/01/31 10:56:05;;;;;;;32.97;16.65;;;;;;;;;;5090249;28;20047;-74
2024/01/31 10:58:33;;;;;;;28.15;14.23;;;;;;;;;;5085319;28;20093;-74
2024/01/31 11:01:02;;;;;;;29.40;15.15;;;;;;;;;;5083702;28;20581;-74
2024/01/31 11:03:28;;;;;;;34.13;14.90;;;;;;;;;;5063627;28;20055;-72
2024/01/31 11:05:55;;;;;;;31.45;14.70;;;;;;;;;;5078533;28;20056;-75
2024/01/31 11:08:23;;;;;;;32.50;14.90;;;;;;;;;;5073801;28;20094;-74
2024/01/31 11:10:50;;;;;;;30.92;15.90;;;;;;;;;;5077656;28;20051;-74
2024/01/31 11:13:16;;;;;;;29.33;15.15;;;;;;;;;;5081638;28;20515;-73
2024/01/31 11:15:43;;;;;;;29.98;15.40;;;;;;;;;;5078358;28;20063;-73
2024/01/31 11:18:10;;;;;;;33.75;15.30;;;;;;;;;;5085752;28;20134;-77
2024/01/31 11:20:39;;;;;;;36.38;14.88;;;;;;;;;;5076213;28;20054;-74
2024/01/31 11:23:05;;;;;;;31.17;14.90;;;;;;;;;;5085391;28;20060;-73
2024/01/31 11:25:34;;;;;;;32.67;14.10;;;;;;;;;;5084378;28;20054;-74
2024/01/31 11:28:01;;;;;;;25.45;13.55;;;;;;;;;;5068341;28;20060;-77
2024/01/31 11:30:28;;;;;;;26.10;13.50;;;;;;;;;;5068257;28;20051;-74
2024/01/31 11:32:55;;;;;;;36.83;15.23;;;;;;;;;;5074171;28;20058;-74
2024/01/31 11:35:25;;;;;;;27.80;14.25;;;;;;;;;;5074430;28;20602;-74
2024/01/31 11:37:51;;;;;;;26.38;13.75;;;;;;;;;;5077402;28;20047;-74
2024/01/31 11:40:19;;;;;;;26.48;13.50;;;;;;;;;;5084827;28;20603;-74
2024/01/31 11:42:46;;;;;;;31.63;14.68;;;;;;;;;;5095651;28;20067;-75
2024/01/31 11:45:12;;;;;;;30.42;14.93;;;;;;;;;;5078496;28;20455;-74
2024/01/31 11:47:39;;;;;;;29.30;14.40;;;;;;;;;;5077075;28;20549;-74
2024/01/31 11:50:07;;;;;;;25.42;14.32;;;;;;;;;;5074664;28;20404;-75
2024/01/31 11:52:33;;;;;;;28.50;15.32;;;;;;;;;;5067576;28;20102;-74
2024/01/31 11:55:00;;;;;;;29.08;15.48;;;;;;;;;;5088457;28;20044;-74
2024/01/31 11:57:26;;;;;;;31.45;15.52;;;;;;;;;;5061016;28;20109;-73
2024/01/31 11:59:53;;;;;;;31.52;15.77;;;;;;;;;;5095241;28;20067;-75
2024/01/31 12:02:19;;;;;;;29.85;16.38;;;;;;;;;;5078735;28;20635;-74
2024/01/31 12:04:54;;;;;;;29.70;15.23;;;;;;;;;;5085559;28;20148;-74
2024/01/31 12:07:25;;;;;;;29.13;13.95;;;;;;;;;;5067554;28;20066;-74
2024/01/31 12:09:51;;;;;;;26.35;13.48;;;;;;;;;;5085728;28;20067;-74
2024/01/31 12:12:18;;;;;;;27.20;13.30;;;;;;;;;;5085730;28;20040;-75
2024/01/31 12:14:44;;;;;;;23.92;13.40;;;;;;;;;;5061262;28;20052;-75
2024/01/31 12:17:24;;;;;;;22.98;11.77;;;;;;;;;;5082411;28;20528;-75
2024/01/31 12:20:01;;;;;;;20.92;11.25;;;;;;;;;;5076346;28;20050;-74
2024/01/31 12:22:27;;;;;;;21.15;11.70;;;;;;;;;;5085448;28;20044;-74
2024/01/31 12:24:54;;;;;;;19.45;10.85;;;;;;;;;;5060913;28;20129;-74
2024/01/31 12:27:20;;;;;;;17.45;10.68;;;;;;;;;;5090076;28;20047;-74
2024/01/31 12:29:48;;;;;;;17.63;10.88;;;;;;;;;;5076075;28;20071;-73
2024/01/31 12:32:14;;;;;;;16.35;10.85;;;;;;;;;;5084618;28;20071;-74
2024/01/31 12:34:41;;;;;;;15.75;10.60;;;;;;;;;;5066761;28;20147;-74
2024/01/31 12:37:07;;;;;;;15.60;10.52;;;;;;;;;;5058320;28;20083;-75
2024/01/31 12:39:35;;;;;;;18.77;10.98;;;;;;;;;;5080684;28;20093;-75
2024/01/31 12:42:03;;;;;;;17.27;10.57;;;;;;;;;;5094590;28;20094;-75
2024/01/31 12:44:30;;;;;;;16.45;10.15;;;;;;;;;;5055728;28;20052;-74
2024/01/31 12:46:57;;;;;;;15.32;10.30;;;;;;;;;;5080767;28;20134;-74
2024/01/31 12:49:24;;;;;;;13.25;9.93;;;;;;;;;;5079384;28;20051;-74
2024/01/31 12:51:50;;;;;;;12.80;9.15;;;;;;;;;;5085626;28;20042;-74
2024/01/31 12:54:17;;;;;;;10.93;7.70;;;;;;;;;;5083692;28;20200;-74
2024/01/31 12:56:43;;;;;;;12.30;8.07;;;;;;;;;;5082336;28;20055;-73
2024/01/31 12:59:10;;;;;;;12.48;8.00;;;;;;;;;;5088193;28;20043;-74
2024/01/31 13:01:36;;;;;;;9.93;7.53;;;;;;;;;;5086640;28;20055;-74
2024/01/31 13:04:03;;;;;;;12.27;8.30;;;;;;;;;;5087588;28;20052;-74
2024/01/31 13:06:30;;;;;;;12.27;8.68;;;;;;;;;;5082528;28;20040;-73
2024/01/31 13:08:57;;;;;;;11.35;8.07;;;;;;;;;;5085128;28;20082;-74
2024/01/31 13:11:24;;;;;;;12.32;8.75;;;;;;;;;;5081623;28;20041;-73
2024/01/31 13:13:51;;;;;;;12.63;8.63;;;;;;;;;;5068157;28;20048;-72
2024/01/31 13:16:17;;;;;;;16.23;9.90;;;;;;;;;;5088392;28;20098;-75
2024/01/31 13:18:44;;;;;;;17.00;10.25;;;;;;;;;;5063756;28;20047;-74
2024/01/31 13:21:11;;;;;;;16.30;10.10;;;;;;;;;;5084245;28;20055;-74
2024/01/31 13:23:39;;;;;;;13.05;9.27;;;;;;;;;;5067032;28;20155;-75
2024/01/31 13:26:07;;;;;;;12.50;8.68;;;;;;;;;;5067637;28;20058;-75
2024/01/31 13:28:33;;;;;;;11.60;8.68;;;;;;;;;;5077925;28;20127;-75
2024/01/31 13:30:59;;;;;;;11.10;8.10;;;;;;;;;;5078365;28;20047;-75
2024/01/31 13:33:26;;;;;;;14.57;9.52;;;;;;;;;;5084651;28;20055;-75
2024/01/31 13:35:53;;;;;;;11.90;8.75;;;;;;;;;;5075322;28;20218;-76
2024/01/31 13:38:19;;;;;;;11.30;7.40;;;;;;;;;;5078798;28;20055;-73
2024/01/31 13:40:46;;;;;;;11.80;7.80;;;;;;;;;;5061669;28;20090;-73
2024/01/31 13:43:12;;;;;;;14.23;8.07;;;;;;;;;;5082437;28;20040;-78
2024/01/31 13:45:39;;;;;;;12.32;7.80;;;;;;;;;;5082862;28;20539;-75
2024/01/31 13:48:05;;;;;;;12.30;6.40;;;;;;;;;;5084506;28;20687;-75
2024/01/31 13:50:36;;;;;;;12.90;7.95;;;;;;;;;;5077911;28;20067;-74
2024/01/31 13:53:02;;;;;;;11.68;7.80;;;;;;;;;;5059675;28;20059;-76
2024/01/31 13:55:29;;;;;;;10.82;6.93;;;;;;;;;;5091255;28;20048;-75
2024/01/31 13:57:55;;;;;;;14.55;7.80;;;;;;;;;;5073841;28;20060;-76
2024/01/31 14:00:22;;;;;;;11.30;7.05;;;;;;;;;;5067217;28;20052;-74
2024/01/31 14:02:48;;;;;;;11.50;7.70;;;;;;;;;;5079742;28;20157;-75
2024/01/31 14:05:16;;;;;;;12.65;6.38;;;;;;;;;;5074617;28;20064;-76
2024/01/31 14:07:43;;;;;;;10.55;5.93;;;;;;;;;;5083821;28;20532;-76
2024/01/31 14:10:09;;;;;;;10.38;5.72;;;;;;;;;;5090659;28;20130;-74
2024/01/31 14:12:35;;;;;;;11.48;6.07;;;;;;;;;;5086644;28;20134;-75
2024/01/31 14:15:02;;;;;;;9.13;5.20;;;;;;;;;;5063425;28;20059;-75
2024/01/31 14:17:29;;;;;;;7.70;4.65;;;;;;;;;;5074815;28;20040;-76
2024/01/31 14:19:55;;;;;;;7.82;4.97;;;;;;;;;;5078500;28;20076;-75
2024/01/31 14:22:22;;;;;;;8.35;5.20;;;;;;;;;;5075689;28;20078;-75
2024/01/31 14:25:06;;;;;;;9.00;4.50;;;;;;;;;;5082626;28;20488;-75
2024/01/31 14:27:33;;;;;;;8.65;5.05;;;;;;;;;;5070464;28;20048;-76
2024/01/31 14:29:59;;;;;;;9.80;4.30;;;;;;;;;;5075574;28;20040;-76
2024/01/31 14:32:27;;;;;;;10.15;4.60;;;;;;;;;;5076375;28;20687;-76
2024/01/31 14:34:54;;;;;;;9.18;5.35;;;;;;;;;;5075919;28;20115;-76